Grandview, Tennessee
Current Conditions -  °F | °C
As of 3:53 PM on Thursday 18 Dec 2014 (Local Time) from KCSV Reporting Station
Overcast Overcast  
Wind Chill: 40°   Ceiling: 4800
Heat Index: 40°   Visibility: 10mi
Dew Point: 31°   Wind: 3mph
Humidity: 70%   Direction: 20°NNE
Pressure: 30.14"   Gusts: NA
Location:  35.74°N, 84.84°W
Report Text: KCSV 182053Z AUTO 02003KT 10SM SCT030 OVC048 04/M01 A3014 RMK AO2 SLP215 T00441006 55002
Loading
Personal Weather Stations






























Interactive Weather Map New forecast layout! Learn more

10-Day Weather Forecast

Advertisements
Track Severe Weather on mobile